sensor_id;sensor_type;location;lat;lon;timestamp;temperature;humidity
10802;DHT22;5453;50.852;7.102;2024-02-15T00:01:39;12.20;99.90
10802;DHT22;5453;50.852;7.102;2024-02-15T00:04:11;12.20;99.90
10802;DHT22;5453;50.852;7.102;2024-02-15T00:06:44;12.20;99.90
10802;DHT22;5453;50.852;7.102;2024-02-15T00:09:17;12.20;99.90
10802;DHT22;5453;50.852;7.102;2024-02-15T00:11:50;12.20;99.90
10802;DHT22;5453;50.852;7.102;2024-02-15T00:14:25;12.20;99.90
10802;DHT22;5453;50.852;7.102;2024-02-15T00:16:58;12.20;99.90
10802;DHT22;5453;50.852;7.102;2024-02-15T00:19:32;12.20;99.90
10802;DHT22;5453;50.852;7.102;2024-02-15T00:22:04;12.20;99.90
10802;DHT22;5453;50.852;7.102;2024-02-15T00:24:38;12.20;99.90
10802;DHT22;5453;50.852;7.102;2024-02-15T00:27:12;12.20;99.90
10802;DHT22;5453;50.852;7.102;2024-02-15T00:29:45;12.20;99.90
10802;DHT22;5453;50.852;7.102;2024-02-15T00:32:18;12.20;99.90
10802;DHT22;5453;50.852;7.102;2024-02-15T00:34:50;12.20;99.90
10802;DHT22;5453;50.852;7.102;2024-02-15T00:37:22;12.20;99.90
10802;DHT22;5453;50.852;7.102;2024-02-15T00:39:56;12.20;99.90
10802;DHT22;5453;50.852;7.102;2024-02-15T00:42:29;12.20;99.90
10802;DHT22;5453;50.852;7.102;2024-02-15T00:45:02;12.30;99.90
10802;DHT22;5453;50.852;7.102;2024-02-15T00:47:36;12.30;99.90
10802;DHT22;5453;50.852;7.102;2024-02-15T00:50:09;12.30;99.90
10802;DHT22;5453;50.852;7.102;2024-02-15T00:52:41;12.30;99.90
10802;DHT22;5453;50.852;7.102;2024-02-15T00:55:15;12.20;99.90
10802;DHT22;5453;50.852;7.102;2024-02-15T00:57:48;12.20;99.90
10802;DHT22;5453;50.852;7.102;2024-02-15T01:00:23;12.30;99.90
10802;DHT22;5453;50.852;7.102;2024-02-15T01:02:56;12.20;99.90
10802;DHT22;5453;50.852;7.102;2024-02-15T01:05:30;12.20;99.90
10802;DHT22;5453;50.852;7.102;2024-02-15T01:08:02;12.20;99.90
10802;DHT22;5453;50.852;7.102;2024-02-15T01:10:40;12.20;99.90
10802;DHT22;5453;50.852;7.102;2024-02-15T01:13:13;12.20;99.90
10802;DHT22;5453;50.852;7.102;2024-02-15T01:15:45;12.20;99.90
10802;DHT22;5453;50.852;7.102;2024-02-15T01:18:18;12.20;99.90
10802;DHT22;5453;50.852;7.102;2024-02-15T01:20:50;12.20;99.90
10802;DHT22;5453;50.852;7.102;2024-02-15T01:23:23;12.20;99.90
10802;DHT22;5453;50.852;7.102;2024-02-15T01:25:57;12.20;99.90
10802;DHT22;5453;50.852;7.102;2024-02-15T01:28:32;12.20;99.90
10802;DHT22;5453;50.852;7.102;2024-02-15T01:31:04;12.20;99.90
10802;DHT22;5453;50.852;7.102;2024-02-15T01:33:37;12.20;99.90
10802;DHT22;5453;50.852;7.102;2024-02-15T01:36:13;12.10;99.90
10802;DHT22;5453;50.852;7.102;2024-02-15T01:38:47;12.10;99.90
10802;DHT22;5453;50.852;7.102;2024-02-15T01:41:20;12.20;99.90
10802;DHT22;5453;50.852;7.102;2024-02-15T01:43:53;12.20;99.90
10802;DHT22;5453;50.852;7.102;2024-02-15T01:46:26;12.10;99.90
10802;DHT22;5453;50.852;7.102;2024-02-15T01:48:58;12.20;99.90
10802;DHT22;5453;50.852;7.102;2024-02-15T01:51:31;12.10;99.90
10802;DHT22;5453;50.852;7.102;2024-02-15T01:54:04;12.10;99.90
10802;DHT22;5453;50.852;7.102;2024-02-15T01:56:38;12.20;99.90
10802;DHT22;5453;50.852;7.102;2024-02-15T01:59:13;12.20;99.90
10802;DHT22;5453;50.852;7.102;2024-02-15T02:01:47;12.10;99.90
10802;DHT22;5453;50.852;7.102;2024-02-15T02:04:19;12.10;99.90
10802;DHT22;5453;50.852;7.102;2024-02-15T02:06:52;12.10;99.90
10802;DHT22;5453;50.852;7.102;2024-02-15T02:09:27;12.10;99.90
10802;DHT22;5453;50.852;7.102;2024-02-15T02:12:01;12.10;99.90
10802;DHT22;5453;50.852;7.102;2024-02-15T02:14:37;12.10;99.90
10802;DHT22;5453;50.852;7.102;2024-02-15T02:17:13;12.10;99.90
10802;DHT22;5453;50.852;7.102;2024-02-15T02:19:46;12.10;99.90
10802;DHT22;5453;50.852;7.102;2024-02-15T02:22:20;12.10;99.90
10802;DHT22;5453;50.852;7.102;2024-02-15T02:25:00;12.20;99.90
10802;DHT22;5453;50.852;7.102;2024-02-15T02:27:36;12.20;99.90
10802;DHT22;5453;50.852;7.102;2024-02-15T02:30:14;12.10;99.90
10802;DHT22;5453;50.852;7.102;2024-02-15T02:32:49;12.10;99.90
10802;DHT22;5453;50.852;7.102;2024-02-15T02:35:21;12.10;99.90
10802;DHT22;5453;50.852;7.102;2024-02-15T02:37:54;12.10;99.90
10802;DHT22;5453;50.852;7.102;2024-02-15T02:40:31;12.10;99.90
10802;DHT22;5453;50.852;7.102;2024-02-15T02:43:04;12.10;99.90
10802;DHT22;5453;50.852;7.102;2024-02-15T02:45:37;12.10;99.90
10802;DHT22;5453;50.852;7.102;2024-02-15T02:48:09;12.10;99.90
10802;DHT22;5453;50.852;7.102;2024-02-15T02:50:42;12.10;99.90
10802;DHT22;5453;50.852;7.102;2024-02-15T02:53:14;12.10;99.90
10802;DHT22;5453;50.852;7.102;2024-02-15T02:55:49;12.10;99.90
10802;DHT22;5453;50.852;7.102;2024-02-15T02:58:21;12.10;99.90
10802;DHT22;5453;50.852;7.102;2024-02-15T03:00:58;12.20;99.90
10802;DHT22;5453;50.852;7.102;2024-02-15T03:03:31;12.10;99.90
10802;DHT22;5453;50.852;7.102;2024-02-15T03:06:04;12.20;99.90
10802;DHT22;5453;50.852;7.102;2024-02-15T03:08:37;12.20;99.90
10802;DHT22;5453;50.852;7.102;2024-02-15T03:11:12;12.20;99.90
10802;DHT22;5453;50.852;7.102;2024-02-15T03:13:44;12.10;99.90
10802;DHT22;5453;50.852;7.102;2024-02-15T03:16:22;12.10;99.90
10802;DHT22;5453;50.852;7.102;2024-02-15T03:18:55;12.20;99.90
10802;DHT22;5453;50.852;7.102;2024-02-15T03:21:28;12.10;99.90
10802;DHT22;5453;50.852;7.102;2024-02-15T03:24:00;12.20;99.90
10802;DHT22;5453;50.852;7.102;2024-02-15T03:26:35;12.10;99.90
10802;DHT22;5453;50.852;7.102;2024-02-15T03:29:08;12.10;99.90
10802;DHT22;5453;50.852;7.102;2024-02-15T03:31:41;12.20;99.90
10802;DHT22;5453;50.852;7.102;2024-02-15T03:34:14;12.10;99.90
10802;DHT22;5453;50.852;7.102;2024-02-15T03:36:48;12.10;99.90
10802;DHT22;5453;50.852;7.102;2024-02-15T03:39:24;12.20;99.90
10802;DHT22;5453;50.852;7.102;2024-02-15T03:41:59;12.10;99.90
10802;DHT22;5453;50.852;7.102;2024-02-15T03:44:31;12.10;99.90
10802;DHT22;5453;50.852;7.102;2024-02-15T03:47:04;12.20;99.90
10802;DHT22;5453;50.852;7.102;2024-02-15T03:49:37;12.10;99.90
10802;DHT22;5453;50.852;7.102;2024-02-15T03:52:10;12.20;99.90
10802;DHT22;5453;50.852;7.102;2024-02-15T03:54:43;12.20;99.90
10802;DHT22;5453;50.852;7.102;2024-02-15T03:57:16;12.20;99.90
10802;DHT22;5453;50.852;7.102;2024-02-15T03:59:51;12.20;99.90
10802;DHT22;5453;50.852;7.102;2024-02-15T04:02:26;12.20;99.90
10802;DHT22;5453;50.852;7.102;2024-02-15T04:05:04;12.20;99.90
10802;DHT22;5453;50.852;7.102;2024-02-15T04:07:38;12.20;99.90
10802;DHT22;5453;50.852;7.102;2024-02-15T04:10:11;12.20;99.90
10802;DHT22;5453;50.852;7.102;2024-02-15T04:12:45;12.20;99.90
10802;DHT22;5453;50.852;7.102;2024-02-15T04:15:17;12.20;99.90
10802;DHT22;5453;50.852;7.102;2024-02-15T04:17:50;12.20;99.90
10802;DHT22;5453;50.852;7.102;2024-02-15T04:20:26;12.20;99.90
10802;DHT22;5453;50.852;7.102;2024-02-15T04:22:59;12.20;99.90
10802;DHT22;5453;50.852;7.102;2024-02-15T04:25:32;12.20;99.90
10802;DHT22;5453;50.852;7.102;2024-02-15T04:28:07;12.20;99.90
10802;DHT22;5453;50.852;7.102;2024-02-15T04:30:39;12.30;99.90
10802;DHT22;5453;50.852;7.102;2024-02-15T04:33:13;12.30;99.90
10802;DHT22;5453;50.852;7.102;2024-02-15T04:35:46;12.20;99.90
10802;DHT22;5453;50.852;7.102;2024-02-15T04:38:20;12.30;99.90
10802;DHT22;5453;50.852;7.102;2024-02-15T04:40:53;12.20;99.90
10802;DHT22;5453;50.852;7.102;2024-02-15T04:43:27;12.30;99.90
10802;DHT22;5453;50.852;7.102;2024-02-15T04:45:59;12.20;99.90
10802;DHT22;5453;50.852;7.102;2024-02-15T04:48:33;12.30;99.90
10802;DHT22;5453;50.852;7.102;2024-02-15T04:51:06;12.20;99.90
10802;DHT22;5453;50.852;7.102;2024-02-15T04:53:38;12.30;99.90
10802;DHT22;5453;50.852;7.102;2024-02-15T04:56:12;12.30;99.90
10802;DHT22;5453;50.852;7.102;2024-02-15T04:58:47;12.20;99.90
10802;DHT22;5453;50.852;7.102;2024-02-15T05:01:21;12.30;99.90
10802;DHT22;5453;50.852;7.102;2024-02-15T05:03:54;12.20;99.90
10802;DHT22;5453;50.852;7.102;2024-02-15T05:06:27;12.30;99.90
10802;DHT22;5453;50.852;7.102;2024-02-15T05:09:05;12.30;99.90
10802;DHT22;5453;50.852;7.102;2024-02-15T05:11:38;12.30;99.90
10802;DHT22;5453;50.852;7.102;2024-02-15T05:14:13;12.30;99.90
10802;DHT22;5453;50.852;7.102;2024-02-15T05:16:50;12.30;99.90
10802;DHT22;5453;50.852;7.102;2024-02-15T05:19:22;12.30;99.90
10802;DHT22;5453;50.852;7.102;2024-02-15T05:21:54;12.30;99.90
10802;DHT22;5453;50.852;7.102;2024-02-15T05:24:27;12.30;99.90
10802;DHT22;5453;50.852;7.102;2024-02-15T05:26:59;12.30;99.90
10802;DHT22;5453;50.852;7.102;2024-02-15T05:29:33;12.30;99.90
10802;DHT22;5453;50.852;7.102;2024-02-15T05:32:07;12.30;99.90
10802;DHT22;5453;50.852;7.102;2024-02-15T05:34:40;12.30;99.90
10802;DHT22;5453;50.852;7.102;2024-02-15T05:37:13;12.30;99.90
10802;DHT22;5453;50.852;7.102;2024-02-15T05:39:46;12.30;99.90
10802;DHT22;5453;50.852;7.102;2024-02-15T05:42:22;12.30;99.90
10802;DHT22;5453;50.852;7.102;2024-02-15T05:44:59;12.30;99.90
10802;DHT22;5453;50.852;7.102;2024-02-15T05:48:05;12.30;99.90
10802;DHT22;5453;50.852;7.102;2024-02-15T05:50:43;12.30;99.90
10802;DHT22;5453;50.852;7.102;2024-02-15T05:53:15;12.30;99.90
10802;DHT22;5453;50.852;7.102;2024-02-15T05:55:48;12.30;99.90
10802;DHT22;5453;50.852;7.102;2024-02-15T05:58:20;12.40;99.90
10802;DHT22;5453;50.852;7.102;2024-02-15T06:00:57;12.30;99.90
10802;DHT22;5453;50.852;7.102;2024-02-15T06:03:34;12.30;99.90
10802;DHT22;5453;50.852;7.102;2024-02-15T06:06:08;12.30;99.90
10802;DHT22;5453;50.852;7.102;2024-02-15T06:08:43;12.40;99.90
10802;DHT22;5453;50.852;7.102;2024-02-15T06:11:19;12.30;99.90
10802;DHT22;5453;50.852;7.102;2024-02-15T06:13:52;12.30;99.90
10802;DHT22;5453;50.852;7.102;2024-02-15T06:16:26;12.30;99.90
10802;DHT22;5453;50.852;7.102;2024-02-15T06:18:58;12.30;99.90
10802;DHT22;5453;50.852;7.102;2024-02-15T06:21:31;12.30;99.90
10802;DHT22;5453;50.852;7.102;2024-02-15T06:24:04;12.30;99.90
10802;DHT22;5453;50.852;7.102;2024-02-15T06:26:36;12.30;99.90
10802;DHT22;5453;50.852;7.102;2024-02-15T06:29:09;12.30;99.90
10802;DHT22;5453;50.852;7.102;2024-02-15T06:32:01;12.40;99.90
10802;DHT22;5453;50.852;7.102;2024-02-15T06:34:51;12.40;99.90
10802;DHT22;5453;50.852;7.102;2024-02-15T06:37:40;12.30;99.90
10802;DHT22;5453;50.852;7.102;2024-02-15T06:40:30;12.40;99.90
10802;DHT22;5453;50.852;7.102;2024-02-15T06:43:03;12.40;99.90
10802;DHT22;5453;50.852;7.102;2024-02-15T06:45:35;12.30;99.90
10802;DHT22;5453;50.852;7.102;2024-02-15T06:48:10;12.40;99.90
10802;DHT22;5453;50.852;7.102;2024-02-15T06:50:43;12.30;99.90
10802;DHT22;5453;50.852;7.102;2024-02-15T06:53:18;12.40;99.90
10802;DHT22;5453;50.852;7.102;2024-02-15T06:55:51;12.40;99.90
10802;DHT22;5453;50.852;7.102;2024-02-15T06:58:23;12.30;99.90
10802;DHT22;5453;50.852;7.102;2024-02-15T07:00:58;12.40;99.90
10802;DHT22;5453;50.852;7.102;2024-02-15T07:03:31;12.30;99.90
10802;DHT22;5453;50.852;7.102;2024-02-15T07:06:04;12.40;99.90
10802;DHT22;5453;50.852;7.102;2024-02-15T07:08:36;12.40;99.90
10802;DHT22;5453;50.852;7.102;2024-02-15T07:11:10;12.40;99.90
10802;DHT22;5453;50.852;7.102;2024-02-15T07:13:42;12.40;99.90
10802;DHT22;5453;50.852;7.102;2024-02-15T07:16:15;12.40;99.90
10802;DHT22;5453;50.852;7.102;2024-02-15T07:18:49;12.40;99.90
10802;DHT22;5453;50.852;7.102;2024-02-15T07:21:23;12.40;99.90
10802;DHT22;5453;50.852;7.102;2024-02-15T07:23:58;12.40;99.90
10802;DHT22;5453;50.852;7.102;2024-02-15T07:26:30;12.40;99.90
10802;DHT22;5453;50.852;7.102;2024-02-15T07:29:05;12.40;99.90
10802;DHT22;5453;50.852;7.102;2024-02-15T07:31:38;12.40;99.90
10802;DHT22;5453;50.852;7.102;2024-02-15T07:34:12;12.40;99.90
10802;DHT22;5453;50.852;7.102;2024-02-15T07:36:44;12.40;99.90
10802;DHT22;5453;50.852;7.102;2024-02-15T07:39:17;12.40;99.90
10802;DHT22;5453;50.852;7.102;2024-02-15T07:41:54;12.40;99.90
10802;DHT22;5453;50.852;7.102;2024-02-15T07:44:27;12.40;99.90
10802;DHT22;5453;50.852;7.102;2024-02-15T07:47:01;12.30;99.90
10802;DHT22;5453;50.852;7.102;2024-02-15T07:49:37;12.30;99.90
10802;DHT22;5453;50.852;7.102;2024-02-15T07:52:09;12.30;99.90
10802;DHT22;5453;50.852;7.102;2024-02-15T07:54:41;12.40;99.90
10802;DHT22;5453;50.852;7.102;2024-02-15T07:57:14;12.30;99.90
10802;DHT22;5453;50.852;7.102;2024-02-15T07:59:46;12.30;99.90
10802;DHT22;5453;50.852;7.102;2024-02-15T08:02:20;12.40;99.90
10802;DHT22;5453;50.852;7.102;2024-02-15T08:04:54;12.40;99.90
10802;DHT22;5453;50.852;7.102;2024-02-15T08:07:27;12.40;99.90
10802;DHT22;5453;50.852;7.102;2024-02-15T08:10:03;12.40;99.90
10802;DHT22;5453;50.852;7.102;2024-02-15T08:12:38;12.40;99.90
10802;DHT22;5453;50.852;7.102;2024-02-15T08:15:12;12.40;99.90
10802;DHT22;5453;50.852;7.102;2024-02-15T08:17:45;12.40;99.90
10802;DHT22;5453;50.852;7.102;2024-02-15T08:20:19;12.40;99.90
10802;DHT22;5453;50.852;7.102;2024-02-15T08:22:52;12.40;99.90
10802;DHT22;5453;50.852;7.102;2024-02-15T08:25:24;12.40;99.90
10802;DHT22;5453;50.852;7.102;2024-02-15T08:27:57;12.40;99.90
10802;DHT22;5453;50.852;7.102;2024-02-15T08:30:30;12.40;99.90
10802;DHT22;5453;50.852;7.102;2024-02-15T08:33:02;12.40;99.90
10802;DHT22;5453;50.852;7.102;2024-02-15T08:35:36;12.40;99.90
10802;DHT22;5453;50.852;7.102;2024-02-15T08:38:10;12.40;99.90
10802;DHT22;5453;50.852;7.102;2024-02-15T08:40:43;12.40;99.90
10802;DHT22;5453;50.852;7.102;2024-02-15T08:43:19;12.40;99.90
10802;DHT22;5453;50.852;7.102;2024-02-15T08:45:52;12.40;99.90
10802;DHT22;5453;50.852;7.102;2024-02-15T08:48:24;12.40;99.90
10802;DHT22;5453;50.852;7.102;2024-02-15T08:50:58;12.40;99.90
10802;DHT22;5453;50.852;7.102;2024-02-15T08:53:34;12.40;99.90
10802;DHT22;5453;50.852;7.102;2024-02-15T08:56:07;12.40;99.90
10802;DHT22;5453;50.852;7.102;2024-02-15T08:58:40;12.40;99.90
10802;DHT22;5453;50.852;7.102;2024-02-15T09:01:16;12.40;99.90
10802;DHT22;5453;50.852;7.102;2024-02-15T09:03:48;12.40;99.90
10802;DHT22;5453;50.852;7.102;2024-02-15T09:06:22;12.50;99.90
10802;DHT22;5453;50.852;7.102;2024-02-15T09:08:54;12.40;99.90
10802;DHT22;5453;50.852;7.102;2024-02-15T09:11:30;12.50;99.90
10802;DHT22;5453;50.852;7.102;2024-02-15T09:14:05;12.50;99.90
10802;DHT22;5453;50.852;7.102;2024-02-15T09:16:40;12.50;99.90
10802;DHT22;5453;50.852;7.102;2024-02-15T09:19:12;12.50;99.90
10802;DHT22;5453;50.852;7.102;2024-02-15T09:21:46;12.50;99.90
10802;DHT22;5453;50.852;7.102;2024-02-15T09:24:19;12.60;99.90
10802;DHT22;5453;50.852;7.102;2024-02-15T09:26:51;12.60;99.90
10802;DHT22;5453;50.852;7.102;2024-02-15T09:29:27;12.70;99.90
10802;DHT22;5453;50.852;7.102;2024-02-15T09:32:00;12.70;99.90
10802;DHT22;5453;50.852;7.102;2024-02-15T09:34:33;12.80;99.90
10802;DHT22;5453;50.852;7.102;2024-02-15T09:37:07;12.90;99.90
10802;DHT22;5453;50.852;7.102;2024-02-15T09:39:39;13.00;99.90
10802;DHT22;5453;50.852;7.102;2024-02-15T09:42:12;13.10;99.90
10802;DHT22;5453;50.852;7.102;2024-02-15T09:44:44;13.20;99.90
10802;DHT22;5453;50.852;7.102;2024-02-15T09:47:20;13.30;99.90
10802;DHT22;5453;50.852;7.102;2024-02-15T09:49:54;13.40;99.90
10802;DHT22;5453;50.852;7.102;2024-02-15T09:52:29;13.50;99.90
10802;DHT22;5453;50.852;7.102;2024-02-15T09:55:05;13.50;99.90
10802;DHT22;5453;50.852;7.102;2024-02-15T09:57:42;13.60;99.90
10802;DHT22;5453;50.852;7.102;2024-02-15T10:00:17;13.70;99.90
10802;DHT22;5453;50.852;7.102;2024-02-15T10:02:51;13.80;99.90
10802;DHT22;5453;50.852;7.102;2024-02-15T10:05:25;13.90;99.90
10802;DHT22;5453;50.852;7.102;2024-02-15T10:07:59;13.90;99.90
10802;DHT22;5453;50.852;7.102;2024-02-15T10:10:32;14.00;99.90
10802;DHT22;5453;50.852;7.102;2024-02-15T10:13:06;14.00;99.90
10802;DHT22;5453;50.852;7.102;2024-02-15T10:15:44;14.00;99.90
10802;DHT22;5453;50.852;7.102;2024-02-15T10:18:20;14.00;99.90
10802;DHT22;5453;50.852;7.102;2024-02-15T10:20:57;14.00;99.90
10802;DHT22;5453;50.852;7.102;2024-02-15T10:23:31;14.00;99.90
10802;DHT22;5453;50.852;7.102;2024-02-15T10:26:19;14.10;99.90
10802;DHT22;5453;50.852;7.102;2024-02-15T10:29:05;14.10;99.90
10802;DHT22;5453;50.852;7.102;2024-02-15T10:31:40;14.10;99.90
10802;DHT22;5453;50.852;7.102;2024-02-15T10:34:14;14.10;99.90
10802;DHT22;5453;50.852;7.102;2024-02-15T10:36:46;14.20;99.90
10802;DHT22;5453;50.852;7.102;2024-02-15T10:39:20;14.20;99.90
10802;DHT22;5453;50.852;7.102;2024-02-15T10:41:54;14.30;99.90
10802;DHT22;5453;50.852;7.102;2024-02-15T10:44:28;14.30;99.90
10802;DHT22;5453;50.852;7.102;2024-02-15T10:47:00;14.40;99.90
10802;DHT22;5453;50.852;7.102;2024-02-15T10:49:40;14.30;99.90
10802;DHT22;5453;50.852;7.102;2024-02-15T10:52:13;14.40;99.90
10802;DHT22;5453;50.852;7.102;2024-02-15T10:54:53;14.40;99.90
10802;DHT22;5453;50.852;7.102;2024-02-15T10:57:37;14.40;99.90
10802;DHT22;5453;50.852;7.102;2024-02-15T11:00:12;14.50;99.90
10802;DHT22;5453;50.852;7.102;2024-02-15T11:03:00;14.50;99.90
10802;DHT22;5453;50.852;7.102;2024-02-15T11:05:36;14.60;99.90
10802;DHT22;5453;50.852;7.102;2024-02-15T11:08:10;14.70;99.90
10802;DHT22;5453;50.852;7.102;2024-02-15T11:10:45;14.70;99.90
10802;DHT22;5453;50.852;7.102;2024-02-15T11:13:18;14.80;99.90
10802;DHT22;5453;50.852;7.102;2024-02-15T11:15:50;14.90;99.90
10802;DHT22;5453;50.852;7.102;2024-02-15T11:18:44;15.00;99.90
10802;DHT22;5453;50.852;7.102;2024-02-15T11:21:54;15.10;99.90
10802;DHT22;5453;50.852;7.102;2024-02-15T11:24:28;15.10;99.90
10802;DHT22;5453;50.852;7.102;2024-02-15T11:27:05;15.20;99.90
10802;DHT22;5453;50.852;7.102;2024-02-15T11:29:48;15.20;99.90
10802;DHT22;5453;50.852;7.102;2024-02-15T11:32:38;15.20;99.90
10802;DHT22;5453;50.852;7.102;2024-02-15T11:35:19;15.30;99.90
10802;DHT22;5453;50.852;7.102;2024-02-15T11:37:57;15.30;99.90
10802;DHT22;5453;50.852;7.102;2024-02-15T11:43:54;15.40;99.90
10802;DHT22;5453;50.852;7.102;2024-02-15T11:46:27;15.40;99.90
10802;DHT22;5453;50.852;7.102;2024-02-15T11:49:03;15.40;99.90
10802;DHT22;5453;50.852;7.102;2024-02-15T11:51:36;15.40;99.90
10802;DHT22;5453;50.852;7.102;2024-02-15T11:54:13;15.40;99.90
10802;DHT22;5453;50.852;7.102;2024-02-15T11:56:49;15.40;99.90
10802;DHT22;5453;50.852;7.102;2024-02-15T11:59:26;15.40;99.90
10802;DHT22;5453;50.852;7.102;2024-02-15T12:02:03;15.50;99.90
10802;DHT22;5453;50.852;7.102;2024-02-15T12:04:53;15.50;99.90
10802;DHT22;5453;50.852;7.102;2024-02-15T12:07:43;15.60;99.90
10802;DHT22;5453;50.852;7.102;2024-02-15T12:10:33;15.60;99.90
10802;DHT22;5453;50.852;7.102;2024-02-15T12:13:22;15.70;99.90
10802;DHT22;5453;50.852;7.102;2024-02-15T12:16:15;15.80;99.90
10802;DHT22;5453;50.852;7.102;2024-02-15T12:19:05;15.90;99.90
10802;DHT22;5453;50.852;7.102;2024-02-15T12:21:38;15.90;99.90
10802;DHT22;5453;50.852;7.102;2024-02-15T12:24:12;15.90;99.90
10802;DHT22;5453;50.852;7.102;2024-02-15T12:26:44;15.90;99.90
10802;DHT22;5453;50.852;7.102;2024-02-15T12:29:17;15.90;99.90
10802;DHT22;5453;50.852;7.102;2024-02-15T12:31:51;15.90;99.90
10802;DHT22;5453;50.852;7.102;2024-02-15T12:34:27;15.90;99.90
10802;DHT22;5453;50.852;7.102;2024-02-15T12:37:06;15.90;99.90
10802;DHT22;5453;50.852;7.102;2024-02-15T12:39:39;15.90;99.90
10802;DHT22;5453;50.852;7.102;2024-02-15T12:42:12;15.90;99.90
10802;DHT22;5453;50.852;7.102;2024-02-15T12:44:45;15.90;99.90
10802;DHT22;5453;50.852;7.102;2024-02-15T12:47:20;16.00;99.90
10802;DHT22;5453;50.852;7.102;2024-02-15T12:49:53;16.00;99.90
10802;DHT22;5453;50.852;7.102;2024-02-15T12:52:39;16.10;99.90
10802;DHT22;5453;50.852;7.102;2024-02-15T12:55:15;16.10;99.90
10802;DHT22;5453;50.852;7.102;2024-02-15T12:57:51;16.20;99.90
10802;DHT22;5453;50.852;7.102;2024-02-15T13:00:25;16.20;99.90
10802;DHT22;5453;50.852;7.102;2024-02-15T13:03:02;16.20;99.90
10802;DHT22;5453;50.852;7.102;2024-02-15T13:05:36;16.20;99.90
10802;DHT22;5453;50.852;7.102;2024-02-15T13:08:09;16.20;99.90
10802;DHT22;5453;50.852;7.102;2024-02-15T13:10:44;16.30;99.90
10802;DHT22;5453;50.852;7.102;2024-02-15T13:13:16;16.30;99.90
10802;DHT22;5453;50.852;7.102;2024-02-15T13:15:48;16.30;99.90
10802;DHT22;5453;50.852;7.102;2024-02-15T13:18:24;16.30;99.90
10802;DHT22;5453;50.852;7.102;2024-02-15T13:20:56;16.20;99.90
10802;DHT22;5453;50.852;7.102;2024-02-15T13:23:29;16.20;99.90
10802;DHT22;5453;50.852;7.102;2024-02-15T13:26:01;16.20;99.90
10802;DHT22;5453;50.852;7.102;2024-02-15T13:28:35;16.20;99.90
10802;DHT22;5453;50.852;7.102;2024-02-15T13:31:07;16.20;99.90
10802;DHT22;5453;50.852;7.102;2024-02-15T13:33:41;16.10;99.90
10802;DHT22;5453;50.852;7.102;2024-02-15T13:36:13;16.10;99.90
10802;DHT22;5453;50.852;7.102;2024-02-15T13:38:46;16.10;99.90
10802;DHT22;5453;50.852;7.102;2024-02-15T13:41:22;16.10;99.90
10802;DHT22;5453;50.852;7.102;2024-02-15T13:43:54;16.00;99.90
10802;DHT22;5453;50.852;7.102;2024-02-15T13:46:27;16.10;99.90
10802;DHT22;5453;50.852;7.102;2024-02-15T13:49:00;16.00;99.90
10802;DHT22;5453;50.852;7.102;2024-02-15T13:51:33;16.00;99.90
10802;DHT22;5453;50.852;7.102;2024-02-15T13:54:08;16.10;99.90
10802;DHT22;5453;50.852;7.102;2024-02-15T13:56:41;16.10;99.90
10802;DHT22;5453;50.852;7.102;2024-02-15T13:59:13;16.00;99.90
10802;DHT22;5453;50.852;7.102;2024-02-15T14:01:45;16.10;99.90
10802;DHT22;5453;50.852;7.102;2024-02-15T14:04:19;16.10;99.90
10802;DHT22;5453;50.852;7.102;2024-02-15T14:06:53;16.10;99.90
10802;DHT22;5453;50.852;7.102;2024-02-15T14:09:27;16.10;99.90
10802;DHT22;5453;50.852;7.102;2024-02-15T14:12:05;16.20;99.90
10802;DHT22;5453;50.852;7.102;2024-02-15T14:14:39;16.30;99.90
10802;DHT22;5453;50.852;7.102;2024-02-15T14:17:13;16.30;99.90
10802;DHT22;5453;50.852;7.102;2024-02-15T14:19:47;16.30;99.90
10802;DHT22;5453;50.852;7.102;2024-02-15T14:22:19;16.30;99.90
10802;DHT22;5453;50.852;7.102;2024-02-15T14:24:54;16.30;99.90
10802;DHT22;5453;50.852;7.102;2024-02-15T14:27:27;16.40;99.90
10802;DHT22;5453;50.852;7.102;2024-02-15T14:30:03;16.40;99.90
10802;DHT22;5453;50.852;7.102;2024-02-15T14:33:05;16.50;99.90
10802;DHT22;5453;50.852;7.102;2024-02-15T14:35:40;16.50;99.90
10802;DHT22;5453;50.852;7.102;2024-02-15T14:38:14;16.50;99.90
10802;DHT22;5453;50.852;7.102;2024-02-15T14:40:50;16.60;99.90
10802;DHT22;5453;50.852;7.102;2024-02-15T14:43:24;16.70;99.90
10802;DHT22;5453;50.852;7.102;2024-02-15T14:46:00;16.70;99.90
10802;DHT22;5453;50.852;7.102;2024-02-15T14:48:35;16.60;99.90
10802;DHT22;5453;50.852;7.102;2024-02-15T14:51:16;16.60;99.90
10802;DHT22;5453;50.852;7.102;2024-02-15T14:53:50;16.70;99.90
10802;DHT22;5453;50.852;7.102;2024-02-15T14:56:22;16.70;99.90
10802;DHT22;5453;50.852;7.102;2024-02-15T14:58:54;16.70;99.90
10802;DHT22;5453;50.852;7.102;2024-02-15T15:01:27;16.60;99.90
10802;DHT22;5453;50.852;7.102;2024-02-15T15:04:01;16.50;99.90
10802;DHT22;5453;50.852;7.102;2024-02-15T15:06:38;16.50;99.90
10802;DHT22;5453;50.852;7.102;2024-02-15T15:09:28;16.40;99.90
10802;DHT22;5453;50.852;7.102;2024-02-15T15:12:18;16.40;99.90
10802;DHT22;5453;50.852;7.102;2024-02-15T15:15:10;16.30;99.90
10802;DHT22;5453;50.852;7.102;2024-02-15T15:17:43;16.20;99.90
10802;DHT22;5453;50.852;7.102;2024-02-15T15:20:20;16.20;99.90
10802;DHT22;5453;50.852;7.102;2024-02-15T15:22:53;16.20;99.90
10802;DHT22;5453;50.852;7.102;2024-02-15T15:25:26;16.10;99.90
10802;DHT22;5453;50.852;7.102;2024-02-15T15:27:59;16.10;99.90
10802;DHT22;5453;50.852;7.102;2024-02-15T15:30:32;16.00;99.90
10802;DHT22;5453;50.852;7.102;2024-02-15T15:33:05;16.00;99.90
10802;DHT22;5453;50.852;7.102;2024-02-15T15:35:39;16.00;99.90
10802;DHT22;5453;50.852;7.102;2024-02-15T15:38:13;16.00;99.90
10802;DHT22;5453;50.852;7.102;2024-02-15T15:40:45;15.90;99.90
10802;DHT22;5453;50.852;7.102;2024-02-15T15:43:19;15.90;99.90
10802;DHT22;5453;50.852;7.102;2024-02-15T15:45:51;15.90;99.90
10802;DHT22;5453;50.852;7.102;2024-02-15T15:48:25;15.80;99.90
10802;DHT22;5453;50.852;7.102;2024-02-15T15:50:57;15.80;99.90
10802;DHT22;5453;50.852;7.102;2024-02-15T15:53:32;15.80;99.90
10802;DHT22;5453;50.852;7.102;2024-02-15T15:56:08;15.80;99.90
10802;DHT22;5453;50.852;7.102;2024-02-15T15:58:41;15.70;99.90
10802;DHT22;5453;50.852;7.102;2024-02-15T16:01:15;15.70;99.90
10802;DHT22;5453;50.852;7.102;2024-02-15T16:03:49;15.70;99.90
10802;DHT22;5453;50.852;7.102;2024-02-15T16:06:22;15.70;99.90
10802;DHT22;5453;50.852;7.102;2024-02-15T16:08:56;15.70;99.90
10802;DHT22;5453;50.852;7.102;2024-02-15T16:11:28;15.60;99.90
10802;DHT22;5453;50.852;7.102;2024-02-15T16:14:01;15.60;99.90
10802;DHT22;5453;50.852;7.102;2024-02-15T16:16:36;15.60;99.90
10802;DHT22;5453;50.852;7.102;2024-02-15T16:19:10;15.60;99.90
10802;DHT22;5453;50.852;7.102;2024-02-15T16:21:42;15.60;99.90
10802;DHT22;5453;50.852;7.102;2024-02-15T16:24:16;15.60;99.90
10802;DHT22;5453;50.852;7.102;2024-02-15T16:26:49;15.60;99.90
10802;DHT22;5453;50.852;7.102;2024-02-15T16:29:21;15.50;99.90
10802;DHT22;5453;50.852;7.102;2024-02-15T16:31:54;15.50;99.90
10802;DHT22;5453;50.852;7.102;2024-02-15T16:34:26;15.50;99.90
10802;DHT22;5453;50.852;7.102;2024-02-15T16:36:59;15.40;99.90